Annoula — 9HYR8 — position and weather

sailwx.info

Track history (hours):
 
Tides and Currents Weather Stations Pressure Air Temp Water Temp Dewpoint Dewpoint Depression Visibility Wind Speed Wind Dir Waves Ship Positions

Annoula

Last reported at 2014-Jul-22 21:31 UTC. Time now 2014-Jul-25 08:58 UTC.
Position N 46°14' E 030°44'.

Length 225 m; draft 7 m.

Type: Cargo ship. MMSI: 256617000.

Date/timePositionNaut miles runAvg speedWind from/ knotsBaromVisibWave heightAir tempDewpointWater temp
2014-Jul-22 21:31N 46°14' E 030°44'0 0.0
2014-Jul-22 06:22N 46°14' E 030°44'0 0.0
2014-Jul-22 05:27N 46°14' E 030°44'0 0.0
2014-Jul-22 04:34N 46°14' E 030°44'0 0.0
2014-Jul-22 03:34N 46°14' E 030°44'0 0.0
2014-Jul-22 02:33N 46°14' E 030°44'0 0.1
2014-Jul-22 01:11N 46°14' E 030°44'0 0.1
2014-Jul-21 23:31N 46°14' E 030°44'0 0.0
2014-Jul-21 22:24N 46°14' E 030°44'0 0.0
2014-Jul-21 21:33N 46°14' E 030°44'0 0.0
2014-Jul-21 19:33N 46°14' E 030°44'0 0.0
2014-Jul-21 18:34N 46°14' E 030°44'0 0.0
2014-Jul-21 17:28N 46°14' E 030°44'0 0.0
2014-Jul-21 15:26N 46°14' E 030°44'0 0.0
2014-Jul-20 23:32N 46°14' E 030°44'0 0.0
2014-Jul-19 05:33N 46°14' E 030°44'0 0.1
2014-Jul-19 04:21N 46°14' E 030°44'0 0.0
2014-Jul-19 02:27N 46°14' E 030°44'0 0.0
2014-Jul-18 22:05N 46°14' E 030°44'  
2014-Jul-14 11:28N 40°55' E 028°54'8 8.9
2014-Jul-14 10:33N 40°49' E 029°00'2 1.9
2014-Jul-14 09:32N 40°50' E 028°58'0 0.5
2014-Jul-14 08:33N 40°50' E 028°58'6 4.2
2014-Jul-14 07:14N 40°50' E 028°50'12611.3
2014-Jul-13 20:04N 40°02' E 026°17'4 8.5
2014-Jul-13 19:33N 40°01' E 026°12'10 9.9
2014-Jul-13 18:33N 39°57' E 025°60'1212.0
2014-Jul-13 17:33N 39°48' E 025°50'5510.6
2014-Jul-13 12:19N 38°59' E 025°16'1112.2
2014-Jul-13 11:27N 38°50' E 025°09'22 4.3
2014-Jul-13 06:14N 38°29' E 024°59'3712.3
2014-Jul-13 03:12N 37°56' E 024°38'1213.1
2014-Jul-13 02:16N 37°45' E 024°31'1013.3
2014-Jul-13 01:33N 37°36' E 024°26'1713.0
2014-Jul-13 00:14N 37°22' E 024°15'1012.2
2014-Jul-12 23:24N 37°13' E 024°08'1012.2
2014-Jul-12 22:33N 37°05' E 024°00'1212.3
2014-Jul-12 21:32N 36°55' E 023°51'  
Track history (hours):
 
Tides and Currents Weather Stations Pressure Air Temp Water Temp Dewpoint Dewpoint Depression Visibility Wind Speed Wind Dir Waves Ship Positions

Annoula

Last reported at 2014-Jul-22 21:31 UTC. Time now 2014-Jul-25 08:58 UTC.
Position N 46°14' E 030°44'.

Length 225 m; draft 7 m.

Type: Cargo ship. MMSI: 256617000.

Date/timePositionNaut miles runAvg speedWind from/ knotsBaromVisibWave heightAir tempDewpointWater temp
2014-Jul-22 21:31N 46°14' E 030°44'0 0.0
2014-Jul-22 06:22N 46°14' E 030°44'0 0.0
2014-Jul-22 05:27N 46°14' E 030°44'0 0.0
2014-Jul-22 04:34N 46°14' E 030°44'0 0.0
2014-Jul-22 03:34N 46°14' E 030°44'0 0.0
2014-Jul-22 02:33N 46°14' E 030°44'0 0.1
2014-Jul-22 01:11N 46°14' E 030°44'0 0.1
2014-Jul-21 23:31N 46°14' E 030°44'0 0.0
2014-Jul-21 22:24N 46°14' E 030°44'0 0.0
2014-Jul-21 21:33N 46°14' E 030°44'0 0.0
2014-Jul-21 19:33N 46°14' E 030°44'0 0.0
2014-Jul-21 18:34N 46°14' E 030°44'0 0.0
2014-Jul-21 17:28N 46°14' E 030°44'0 0.0
2014-Jul-21 15:26N 46°14' E 030°44'0 0.0
2014-Jul-20 23:32N 46°14' E 030°44'0 0.0
2014-Jul-19 05:33N 46°14' E 030°44'0 0.1
2014-Jul-19 04:21N 46°14' E 030°44'0 0.0
2014-Jul-19 02:27N 46°14' E 030°44'0 0.0
2014-Jul-18 22:05N 46°14' E 030°44'  
2014-Jul-14 11:28N 40°55' E 028°54'8 8.9
2014-Jul-14 10:33N 40°49' E 029°00'2 1.9
2014-Jul-14 09:32N 40°50' E 028°58'0 0.5
2014-Jul-14 08:33N 40°50' E 028°58'6 4.2
2014-Jul-14 07:14N 40°50' E 028°50'12611.3
2014-Jul-13 20:04N 40°02' E 026°17'4 8.5
2014-Jul-13 19:33N 40°01' E 026°12'10 9.9
2014-Jul-13 18:33N 39°57' E 025°60'1212.0
2014-Jul-13 17:33N 39°48' E 025°50'5510.6
2014-Jul-13 12:19N 38°59' E 025°16'1112.2
2014-Jul-13 11:27N 38°50' E 025°09'22 4.3
2014-Jul-13 06:14N 38°29' E 024°59'3712.3
2014-Jul-13 03:12N 37°56' E 024°38'1213.1
2014-Jul-13 02:16N 37°45' E 024°31'1013.3
2014-Jul-13 01:33N 37°36' E 024°26'1713.0
2014-Jul-13 00:14N 37°22' E 024°15'1012.2
2014-Jul-12 23:24N 37°13' E 024°08'1012.2
2014-Jul-12 22:33N 37°05' E 024°00'1212.3
2014-Jul-12 21:32N 36°55' E 023°51'  

Dump ship's entire track history